Time;durP1;ratioP1;P1;durP2;ratioP2;P2;SDS_P1;SDS_P2;PMS_P1;PMS_P2;Temp;Humidity;BMP_temperature;BMP_pressure;BME280_temperature;BME280_humidity;BME280_pressure;Samples;Min_cycle;Max_cycle;Signal;HPM_P1;HPM_P2
2023/04/27 00:02:28;;;;;;;11.73;5.12;;;;;;;13.40;78.94;99353.23;1650121;85;21223;-80
2023/04/27 00:05:34;;;;;;;6.67;4.75;;;;;;;13.48;79.06;99352.99;1650015;87;21183;-80
2023/04/27 00:08:40;;;;;;;9.33;4.87;;;;;;;13.32;80.03;99353.50;1649231;85;21260;-88
2023/04/27 00:11:47;;;;;;;10.65;5.20;;;;;;;13.38;79.94;99354.00;1650805;85;21785;-83
2023/04/27 00:14:52;;;;;;;11.40;4.78;;;;;;;13.40;80.12;99360.10;1650666;87;21208;-80
2023/04/27 00:18:00;;;;;;;6.53;4.80;;;;;;;13.40;80.28;99360.10;1650774;85;21772;-81
2023/04/27 00:21:06;;;;;;;6.35;4.92;;;;;;;13.50;80.11;99349.52;1650813;87;21183;-88
2023/04/27 00:24:13;;;;;;;6.00;4.40;;;;;;;13.32;80.78;99332.91;1650784;87;21191;-82
2023/04/27 00:27:18;;;;;;;6.20;4.37;;;;;;;13.42;80.95;99342.89;1650816;85;21247;-81
2023/04/27 00:30:23;;;;;;;8.50;5.55;;;;;;;13.30;81.53;99342.72;1650837;87;21215;-87
2023/04/27 00:33:28;;;;;;;6.78;4.55;;;;;;;13.26;82.01;99332.38;1650854;85;21215;-88
2023/04/27 00:36:34;;;;;;;11.12;5.80;;;;;;;13.14;82.72;99312.14;1650769;85;21247;-89
2023/04/27 00:39:40;;;;;;;10.82;5.28;;;;;;;13.17;82.93;99296.58;1650797;87;21772;-89
2023/04/27 00:42:47;;;;;;;10.90;5.83;;;;;;;13.16;83.32;99277.89;1635405;87;21195;-83
2023/04/27 00:45:53;;;;;;;7.65;5.20;;;;;;;13.15;83.66;99269.89;1650871;87;21220;-87
2023/04/27 00:49:00;;;;;;;10.98;5.70;;;;;;;13.17;83.82;99275.45;1650744;87;21183;-89
2023/04/27 00:52:06;;;;;;;10.68;5.20;;;;;;;13.26;83.58;99276.08;1650421;85;21226;-89
2023/04/27 00:55:13;;;;;;;8.35;5.12;;;;;;;13.36;83.32;99268.24;1650046;87;21199;-81
2023/04/27 00:58:20;;;;;;;9.18;4.83;;;;;;;13.37;83.44;99274.04;1649601;85;21223;-89
2023/04/27 01:01:25;;;;;;;9.08;5.03;;;;;;;13.36;83.54;99273.73;1650625;85;21227;-89
2023/04/27 01:04:31;;;;;;;7.67;5.10;;;;;;;13.35;83.60;99280.27;1650634;87;21796;-84
2023/04/27 01:07:37;;;;;;;7.78;5.05;;;;;;;13.13;84.64;99281.62;1650008;85;21277;-88
2023/04/27 01:10:44;;;;;;;7.35;4.78;;;;;;;13.12;84.78;99279.92;1659014;86;21219;-81
2023/04/27 01:13:51;;;;;;;6.37;4.92;;;;;;;13.12;85.03;99295.86;1659733;86;21163;-81
2023/04/27 01:16:58;;;;;;;15.93;5.47;;;;;;;13.11;85.16;99312.56;1658803;85;21198;-83
2023/04/27 01:20:06;;;;;;;10.05;5.08;;;;;;;13.13;85.11;99315.41;1659806;86;21163;-81
2023/04/27 01:23:10;;;;;;;11.00;5.53;;;;;;;13.08;85.51;99286.91;1658794;85;21246;-89
2023/04/27 01:26:16;;;;;;;12.43;5.47;;;;;;;13.22;84.81;99286.69;1658763;86;21207;-83
2023/04/27 01:29:22;;;;;;;9.38;4.92;;;;;;;13.19;85.34;99278.84;1659783;86;21167;-79
2023/04/27 01:32:28;;;;;;;12.35;5.80;;;;;;;13.16;85.94;99265.54;1658511;85;21211;-80
2023/04/27 01:35:34;;;;;;;7.97;5.33;;;;;;;13.17;86.47;99219.17;1659578;86;21187;-88
2023/04/27 01:38:41;;;;;;;10.25;5.75;;;;;;;13.08;87.52;99258.95;1658456;85;21258;-88
2023/04/27 01:41:47;;;;;;;9.15;5.78;;;;;;;13.03;88.35;99271.95;1658571;85;21226;-80
2023/04/27 01:44:54;;;;;;;7.80;5.03;;;;;;;13.10;88.41;99281.52;1659618;86;21196;-85
2023/04/27 01:48:01;;;;;;;10.40;5.30;;;;;;;13.05;88.95;99268.98;1642330;86;21190;-80
2023/04/27 01:51:06;;;;;;;9.53;5.75;;;;;;;13.00;89.14;99255.06;1659871;86;21175;-86
2023/04/27 01:54:12;;;;;;;13.58;5.70;;;;;;;12.90;90.13;99255.53;1659860;86;21179;-85
2023/04/27 01:57:18;;;;;;;10.18;5.05;;;;;;;12.85;90.55;99262.20;1659349;85;21255;-86
2023/04/27 02:00:25;;;;;;;11.18;5.58;;;;;;;12.87;90.56;99266.93;1659870;86;21179;-79
2023/04/27 02:03:30;;;;;;;7.33;5.33;;;;;;;12.90;90.66;99255.53;1659880;85;21214;-86
2023/04/27 02:06:35;;;;;;;9.10;4.75;;;;;;;12.91;90.68;99253.09;1659803;85;21175;-86
2023/04/27 02:09:41;;;;;;;9.90;5.45;;;;;;;12.96;90.55;99248.33;1657606;86;21220;-78
2023/04/27 02:12:47;;;;;;;8.55;5.03;;;;;;;12.93;91.11;99253.70;1650715;85;21749;-82
2023/04/27 02:15:52;;;;;;;7.72;5.03;;;;;;;12.94;91.17;99247.18;1650637;87;21836;-86
2023/04/27 02:18:58;;;;;;;8.95;5.80;;;;;;;12.94;91.61;99250.45;1650814;87;21223;-81
2023/04/27 02:22:03;;;;;;;13.45;5.45;;;;;;;12.93;91.50;99261.94;1650806;85;21776;-87
2023/04/27 02:25:08;;;;;;;7.72;5.28;;;;;;;12.82;92.25;99253.02;1650652;87;21191;-88
2023/04/27 02:28:13;;;;;;;7.40;5.53;;;;;;;12.84;92.27;99256.38;1649422;85;21243;-88
2023/04/27 02:31:19;;;;;;;5.75;4.70;;;;;;;12.85;92.34;99238.87;1649752;85;21183;-88
2023/04/27 02:34:24;;;;;;;9.78;5.33;;;;;;;12.84;92.23;99239.91;1650754;87;21180;-80
2023/04/27 02:37:30;;;;;;;10.28;5.28;;;;;;;12.76;92.86;99230.04;1650140;85;21211;-80
2023/04/27 02:40:38;;;;;;;8.53;5.62;;;;;;;12.65;93.15;99222.99;1650792;87;21235;-86
2023/04/27 03:10:13;;;;;;;6.97;4.83;;;;;;;12.40;99.42;99240.69;1876176;76;22754;-80
2023/04/27 03:13:21;;;;;;;9.43;5.83;;;;;;;12.42;98.65;99257.75;1780765;80;21184;-80
2023/04/27 03:16:26;;;;;;;9.50;5.35;;;;;;;12.26;99.48;99264.54;1787488;79;21186;-80
2023/04/27 03:19:34;;;;;;;10.50;5.53;;;;;;;12.30;99.36;99253.47;1779229;80;21506;-80
2023/04/27 03:22:39;;;;;;;9.50;5.40;;;;;;;12.33;99.57;99261.27;1780723;80;21351;-80
2023/04/27 03:25:38;;;;;;;9.00;5.35;;;;;;;12.39;99.24;99265.06;1781083;80;21180;-80
2023/04/27 03:28:43;;;;;;;7.42;5.20;;;;;;;12.36;99.04;99280.02;1780795;80;21224;-80
2023/04/27 03:31:52;;;;;;;8.38;5.05;;;;;;;12.39;98.81;99264.53;1781428;80;21169;-80
2023/04/27 03:34:58;;;;;;;14.53;6.22;;;;;;;12.45;99.03;99265.03;1781587;80;21200;-80
2023/04/27 03:38:03;;;;;;;12.50;6.15;;;;;;;12.43;98.41;99248.50;1781594;80;21181;-80
2023/04/27 03:41:10;;;;;;;9.28;6.15;;;;;;;12.39;99.06;99250.81;1781598;80;21758;-80
2023/04/27 03:44:16;;;;;;;12.33;6.22;;;;;;;12.39;99.63;99266.43;1781466;80;21165;-81
2023/04/27 03:47:21;;;;;;;19.45;6.40;;;;;;;12.41;99.31;99272.53;1781615;80;21228;-80
2023/04/27 03:50:27;;;;;;;10.55;4.78;;;;;;;12.39;99.83;99284.25;1780103;80;21224;-80
2023/04/27 03:53:33;;;;;;;8.53;5.40;;;;;;;12.36;100.00;99289.63;1780064;80;21224;-80
2023/04/27 03:56:40;;;;;;;11.15;5.45;;;;;;;12.29;100.00;99290.17;1780175;80;21192;-80
2023/04/27 03:59:45;;;;;;;8.68;5.90;;;;;;;12.31;100.00;99283.94;1780193;80;21220;-80
2023/04/27 04:02:52;;;;;;;9.80;5.72;;;;;;;12.29;100.00;99280.58;1781618;80;21184;-80
2023/04/27 04:05:59;;;;;;;12.70;6.35;;;;;;;12.38;100.00;99269.70;1781563;80;21259;-80
2023/04/27 04:09:04;;;;;;;8.85;5.60;;;;;;;12.49;100.00;99262.19;1779400;80;21212;-80
2023/04/27 04:12:13;;;;;;;11.08;5.58;;;;;;;12.52;100.00;99267.78;1801823;79;21161;-80
2023/04/27 04:15:19;;;;;;;10.75;5.50;;;;;;;12.58;100.00;99273.77;1803623;79;21747;-80
2023/04/27 04:18:26;;;;;;;8.88;5.03;;;;;;;12.69;100.00;99284.61;1803421;79;21173;-80
2023/04/27 04:21:32;;;;;;;8.60;5.55;;;;;;;12.66;100.00;99280.94;1802842;79;21173;-80
2023/04/27 04:24:39;;;;;;;9.15;5.15;;;;;;;12.58;100.00;99273.77;1781065;79;21212;-80
2023/04/27 04:27:46;;;;;;;14.90;6.08;;;;;;;12.62;100.00;99259.95;1802787;79;21169;-80
2023/04/27 04:30:54;;;;;;;12.10;6.25;;;;;;;12.76;100.00;99247.88;1801233;79;21213;-81
2023/04/27 04:34:00;;;;;;;11.68;5.90;;;;;;;12.81;100.00;99248.59;1803005;79;21350;-81
2023/04/27 04:37:05;;;;;;;10.65;5.78;;;;;;;12.74;100.00;99253.25;1802978;79;21224;-80
2023/04/27 04:40:15;;;;;;;11.80;5.45;;;;;;;12.77;100.00;99252.83;1801870;79;21316;-80
2023/04/27 04:43:21;;;;;;;11.90;5.50;;;;;;;12.76;100.00;99245.66;1802750;79;21216;-80
2023/04/27 04:46:29;;;;;;;10.20;5.37;;;;;;;12.82;100.00;99259.88;1802941;79;21229;-80
2023/04/27 04:49:36;;;;;;;11.18;5.65;;;;;;;12.83;100.00;99260.19;1802730;79;21185;-79
2023/04/27 04:52:42;;;;;;;11.28;5.90;;;;;;;13.01;100.00;99269.94;1803049;79;21173;-80
2023/04/27 04:55:41;;;;;;;10.25;4.67;;;;;;;13.13;100.00;99259.67;1801972;79;21264;-80
2023/04/27 04:58:35;;;;;;;11.33;4.97;;;;;;;13.26;100.00;99256.33;1802720;79;21232;-80
2023/04/27 05:01:41;;;;;;;9.65;4.87;;;;;;;13.57;99.73;99252.47;1802759;79;21176;-80
2023/04/27 05:04:46;;;;;;;7.20;4.83;;;;;;;13.72;99.48;99245.59;1802644;79;21224;-80
2023/04/27 05:07:53;;;;;;;10.60;4.90;;;;;;;13.98;97.38;99245.09;1802705;79;21161;-80
2023/04/27 05:11:01;;;;;;;6.53;4.20;;;;;;;14.24;96.58;99239.34;1796406;79;21705;-81
2023/04/27 05:14:06;;;;;;;5.87;4.00;;;;;;;14.45;95.34;99233.13;1800191;79;21291;-81
2023/04/27 05:17:12;;;;;;;11.12;4.67;;;;;;;14.53;94.02;99235.59;1796857;79;21190;-80
2023/04/27 05:20:17;;;;;;;7.95;4.47;;;;;;;14.74;93.44;99231.56;1769426;79;21166;-81
2023/04/27 05:23:22;;;;;;;11.73;4.42;;;;;;;14.99;90.99;99240.56;1783678;79;21216;-81
2023/04/27 05:26:29;;;;;;;8.13;4.30;;;;;;;15.26;89.73;99236.93;1796708;79;21901;-81
2023/04/27 05:29:34;;;;;;;8.15;4.37;;;;;;;15.43;89.01;99243.16;1794564;79;21215;-81
2023/04/27 05:32:39;;;;;;;12.05;3.85;;;;;;;15.63;87.67;99245.64;1795747;79;21163;-81
2023/04/27 05:35:46;;;;;;;9.30;3.83;;;;;;;15.73;86.19;99244.02;1778673;79;21484;-81
2023/04/27 05:38:53;;;;;;;7.30;4.05;;;;;;;15.83;84.93;99239.30;1784820;79;21231;-80
2023/04/27 05:41:58;;;;;;;8.38;4.50;;;;;;;15.92;84.62;99248.08;1785783;79;21182;-79
2023/04/27 05:45:03;;;;;;;9.85;4.58;;;;;;;15.96;83.96;99244.61;1791689;79;21166;-79
2023/04/27 05:48:09;;;;;;;9.98;3.87;;;;;;;16.06;84.45;99238.51;1782029;79;21909;-80
2023/04/27 05:51:15;;;;;;;8.48;3.67;;;;;;;16.08;83.54;99234.42;1788329;79;21173;-80
2023/04/27 05:54:20;;;;;;;5.00;3.60;;;;;;;16.09;83.87;99231.11;1790844;79;21838;-81
2023/04/27 05:57:26;;;;;;;9.05;3.92;;;;;;;16.21;81.96;99229.22;1791545;79;21197;-82
2023/04/27 06:00:21;;;;;;;10.13;4.20;;;;;;;16.26;82.34;99227.12;1792875;79;21233;-82
2023/04/27 06:03:25;;;;;;;7.05;4.00;;;;;;;16.32;81.93;99226.16;1787848;79;21502;-82
2023/04/27 06:06:31;;;;;;;7.53;3.95;;;;;;;16.30;80.70;99221.43;1790273;79;21228;-82
2023/04/27 06:09:38;;;;;;;9.70;4.37;;;;;;;16.39;79.63;99226.89;1785227;79;21141;-82
2023/04/27 06:12:44;;;;;;;7.62;3.77;;;;;;;16.50;79.75;99215.53;1787784;79;21161;-83
2023/04/27 06:15:50;;;;;;;10.63;3.35;;;;;;;16.57;79.77;99210.74;1792898;78;21228;-83
2023/04/27 06:18:59;;;;;;;5.22;3.17;;;;;;;16.72;79.80;99211.65;1791385;79;21785;-82
2023/04/27 06:22:05;;;;;;;12.13;4.03;;;;;;;16.86;79.76;99209.75;1792928;79;21815;-82
2023/04/27 06:25:11;;;;;;;6.42;3.27;;;;;;;17.02;79.55;99205.91;1792026;79;21898;-82
2023/04/27 06:28:17;;;;;;;8.43;3.30;;;;;;;17.08;78.43;99202.20;1785645;79;21169;-81
2023/04/27 06:31:24;;;;;;;7.78;3.92;;;;;;;17.11;77.63;99203.06;1782993;79;21260;-81
2023/04/27 06:34:30;;;;;;;6.83;3.60;;;;;;;17.17;76.36;99197.09;1790590;79;21228;-81
2023/04/27 06:37:34;;;;;;;7.75;3.40;;;;;;;17.28;76.97;99198.44;1782549;79;21473;-81
2023/04/27 06:40:40;;;;;;;6.80;3.40;;;;;;;17.43;76.64;99197.05;1793603;79;21220;-81
2023/04/27 06:43:46;;;;;;;4.55;3.35;;;;;;;17.60;76.55;99201.53;1786622;79;21173;-81
2023/04/27 06:46:54;;;;;;;12.07;3.55;;;;;;;17.74;75.20;99194.34;1790210;79;21169;-81
2023/04/27 06:49:59;;;;;;;6.65;3.55;;;;;;;17.80;76.16;99202.45;1793449;79;21173;-81
2023/04/27 06:53:07;;;;;;;5.80;2.98;;;;;;;17.95;75.40;99194.13;1789101;79;21168;-82
2023/04/27 06:56:16;;;;;;;5.05;3.20;;;;;;;18.16;75.49;99199.42;1795200;79;21200;-82
2023/04/27 06:59:22;;;;;;;9.15;3.15;;;;;;;18.24;74.82;99194.86;1797284;79;21174;-81
2023/04/27 07:02:28;;;;;;;10.30;3.52;;;;;;;18.45;74.48;99199.63;1794401;79;21200;-80
2023/04/27 07:05:26;;;;;;;4.70;3.08;;;;;;;18.65;73.96;99199.90;1791494;79;21200;-80
2023/04/27 07:08:19;;;;;;;6.83;3.77;;;;;;;18.81;73.27;99212.05;1794482;79;21153;-80
2023/04/27 07:11:24;;;;;;;6.78;3.15;;;;;;;18.94;70.57;99205.84;1795483;79;21229;-80
2023/04/27 07:14:32;;;;;;;9.65;4.08;;;;;;;18.89;69.06;99203.84;1778285;79;21211;-80
2023/04/27 07:17:38;;;;;;;10.72;3.15;;;;;;;18.79;70.14;99200.95;1763805;79;21172;-80
2023/04/27 07:20:45;;;;;;;6.05;3.58;;;;;;;18.90;71.67;99203.58;1775189;79;21177;-80
2023/04/27 07:23:50;;;;;;;17.07;6.10;;;;;;;19.10;70.51;99209.08;1775476;79;21165;-81
2023/04/27 07:26:58;;;;;;;17.10;6.47;;;;;;;19.19;68.65;99200.59;1780126;79;21727;-81
2023/04/27 07:30:04;;;;;;;8.98;5.17;;;;;;;19.28;68.95;99202.36;1700260;83;21769;-81
2023/04/27 07:33:12;;;;;;;15.90;6.08;;;;;;;19.45;67.79;99205.05;1688263;84;21639;-81
2023/04/27 07:36:18;;;;;;;19.73;8.18;;;;;;;19.64;68.72;99200.84;1690359;84;21159;-81
2023/04/27 07:39:25;;;;;;;27.80;10.70;;;;;;;19.83;68.06;99200.75;1706487;82;21172;-81
2023/04/27 07:42:31;;;;;;;17.80;9.58;;;;;;;19.95;68.87;99204.75;1704918;82;21192;-81
2023/04/27 07:45:40;;;;;;;43.35;17.85;;;;;;;20.20;67.50;99203.28;1706734;82;21168;-81
2023/04/27 07:48:45;;;;;;;31.73;14.65;;;;;;;20.21;64.60;99194.67;1709151;82;21183;-82
2023/04/27 07:51:51;;;;;;;24.60;11.35;;;;;;;20.15;65.98;99186.03;1701947;82;21167;-82
2023/04/27 07:54:57;;;;;;;26.62;10.93;;;;;;;20.22;63.07;99186.62;1707192;83;21200;-81
2023/04/27 07:58:02;;;;;;;24.20;11.90;;;;;;;20.17;62.45;99190.20;1747030;81;21167;-81
2023/04/27 08:01:08;;;;;;;30.77;13.20;;;;;;;20.01;62.45;99189.80;1679162;83;21746;-82
2023/04/27 08:04:18;;;;;;;29.87;14.28;;;;;;;19.94;64.37;99194.73;1681465;84;21303;-81
2023/04/27 08:07:25;;;;;;;32.65;12.68;;;;;;;19.90;64.69;99190.80;1681640;83;21773;-80
2023/04/27 08:10:32;;;;;;;17.12;7.83;;;;;;;20.14;65.08;99199.63;1689928;84;21183;-80
2023/04/27 08:13:40;;;;;;;13.35;3.90;;;;;;;20.17;63.49;99192.97;1690044;84;22159;-80
2023/04/27 08:16:40;;;;;;;10.38;3.47;;;;;;;20.19;57.74;99200.22;1660493;84;21257;-81
2023/04/27 08:19:48;;;;;;;5.33;2.47;;;;;;;20.19;56.52;99194.11;1681199;83;21216;-80
2023/04/27 08:22:54;;;;;;;5.97;2.45;;;;;;;20.17;54.80;99191.58;1684505;83;21812;-80
2023/04/27 08:26:00;;;;;;;4.30;2.05;;;;;;;20.21;51.90;99182.73;1672276;84;21193;-80
2023/04/27 08:29:05;;;;;;;2.95;1.82;;;;;;;20.18;54.23;99185.47;1679761;84;21194;-80
2023/04/27 08:32:13;;;;;;;3.83;1.87;;;;;;;20.24;55.49;99182.21;1658806;85;21402;-81
2023/04/27 08:35:19;;;;;;;8.80;2.00;;;;;;;20.20;52.33;99187.45;1663419;84;21191;-80
2023/04/27 08:38:26;;;;;;;5.83;2.27;;;;;;;20.21;51.52;99191.06;1664334;84;22144;-80
2023/04/27 08:41:31;;;;;;;5.42;2.02;;;;;;;20.23;52.45;99188.84;1665821;84;21200;-81
2023/04/27 08:44:38;;;;;;;11.57;2.08;;;;;;;20.26;51.40;99186.37;1663102;85;21272;-80
2023/04/27 08:47:45;;;;;;;2.77;1.90;;;;;;;20.33;51.60;99184.22;1668156;85;21195;-80
2023/04/27 08:50:44;;;;;;;4.00;2.08;;;;;;;20.42;53.00;99175.67;1639724;84;21215;-80
2023/04/27 08:53:43;;;;;;;2.80;1.98;;;;;;;20.60;54.11;99170.23;1679603;84;21201;-80
2023/04/27 08:56:49;;;;;;;3.62;1.82;;;;;;;20.77;51.09;99178.94;1655539;84;21247;-80
2023/04/27 09:00:12;;;;;;;8.83;2.08;;;;;;;20.58;50.49;99171.62;1662721;85;21252;-80
2023/04/27 09:03:12;;;;;;;3.60;1.90;;;;;;;20.58;52.61;99173.01;1658657;85;21252;-80
2023/04/27 09:06:18;;;;;;;2.85;1.70;;;;;;;20.57;52.92;99177.73;1672514;84;21783;-82
2023/04/27 09:09:30;;;;;;;5.78;2.30;;;;;;;20.63;52.42;99175.25;1663997;85;21192;-80
2023/04/27 09:12:29;;;;;;;3.42;1.70;;;;;;;20.76;52.14;99180.05;1663316;86;21174;-81
2023/04/27 09:15:35;;;;;;;2.92;1.40;;;;;;;20.75;51.66;99174.19;1669884;84;21226;-80
2023/04/27 09:18:41;;;;;;;1.98;1.30;;;;;;;20.85;52.14;99173.70;1646983;87;21193;-82
2023/04/27 09:21:49;;;;;;;9.48;1.45;;;;;;;20.98;50.88;99166.79;1647450;85;21353;-81
2023/04/27 09:24:59;;;;;;;3.58;1.30;;;;;;;20.98;48.89;99165.39;1607586;85;21401;-81
2023/04/27 09:28:05;;;;;;;8.40;2.47;;;;;;;20.98;48.33;99170.13;1667841;84;21213;-81
2023/04/27 09:31:10;;;;;;;2.85;1.80;;;;;;;20.75;49.83;99168.11;1670422;84;21198;-81
2023/04/27 09:34:16;;;;;;;3.30;1.80;;;;;;;20.73;50.83;99163.35;1694022;83;21223;-81
2023/04/27 09:37:21;;;;;;;5.28;1.77;;;;;;;20.82;51.23;99167.29;1693770;83;21179;-81
2023/04/27 09:40:32;;;;;;;8.63;1.92;;;;;;;20.76;51.61;99164.77;1681931;83;21187;-81
2023/04/27 09:43:31;;;;;;;4.97;1.65;;;;;;;20.88;53.42;99162.58;1710003;83;21178;-81
2023/04/27 09:46:37;;;;;;;5.20;1.62;;;;;;;20.88;52.37;99170.92;1716184;83;21178;-81
2023/04/27 09:49:43;;;;;;;3.17;1.70;;;;;;;20.87;53.43;99170.64;1715771;83;21169;-80
2023/04/27 09:52:49;;;;;;;4.58;1.60;;;;;;;20.91;54.08;99171.78;1717968;82;21174;-80
2023/04/27 09:56:11;;;;;;;4.00;1.72;;;;;;;21.17;55.34;99178.25;1713432;82;21278;-80
2023/04/27 09:59:41;;;;;;;6.30;1.70;;;;;;;21.22;53.90;99178.30;1712197;82;21251;-81
2023/04/27 10:03:18;;;;;;;3.08;1.75;;;;;;;21.31;53.90;99170.26;1711995;82;21196;-81
2023/04/27 10:06:55;;;;;;;2.42;1.50;;;;;;;21.38;53.49;99175.02;1710749;82;21169;-80
2023/04/27 10:10:01;;;;;;;5.78;1.55;;;;;;;21.51;53.07;99176.45;1711183;82;21249;-81
2023/04/27 10:13:10;;;;;;;8.35;1.98;;;;;;;21.46;51.07;99177.27;1710554;82;21182;-81
2023/04/27 10:16:25;;;;;;;4.90;1.72;;;;;;;21.34;52.48;99176.67;1710687;82;21289;-81
2023/04/27 10:19:30;;;;;;;5.05;2.27;;;;;;;21.37;54.02;99185.87;1718365;82;21206;-81
2023/04/27 10:22:52;;;;;;;3.87;2.08;;;;;;;21.43;52.19;99180.59;1711107;83;21194;-81
2023/04/27 10:26:01;;;;;;;6.72;2.15;;;;;;;21.36;53.39;99181.39;1713343;83;21202;-81
2023/04/27 10:29:15;;;;;;;4.85;1.82;;;;;;;21.29;52.81;99176.63;1699948;83;21741;-81
2023/04/27 10:32:33;;;;;;;5.92;2.10;;;;;;;21.24;55.19;99183.02;1716354;83;21217;-81
2023/04/27 10:35:44;;;;;;;5.65;2.05;;;;;;;21.40;55.49;99179.18;1698167;83;21290;-81
2023/04/27 10:38:51;;;;;;;8.63;1.95;;;;;;;21.49;54.58;99181.44;1710434;83;21214;-81
2023/04/27 10:42:01;;;;;;;4.75;2.37;;;;;;;21.33;56.11;99177.80;1708448;84;21250;-81
2023/04/27 10:45:00;;;;;;;3.60;2.13;;;;;;;21.40;56.15;99180.57;1711437;83;21173;-81
2023/04/27 10:47:53;;;;;;;7.75;1.92;;;;;;;21.55;55.15;99181.19;1705393;82;21226;-81
2023/04/27 10:50:39;;;;;;;8.23;1.90;;;;;;;21.58;51.41;99186.18;1710599;84;21761;-81
2023/04/27 10:53:33;;;;;;;13.22;2.35;;;;;;;21.51;52.30;99188.41;1709750;83;21760;-81
2023/04/27 10:56:19;;;;;;;5.70;2.20;;;;;;;21.61;54.70;99191.77;1708721;82;21222;-81
2023/04/27 10:59:12;;;;;;;3.47;2.15;;;;;;;21.59;55.57;99189.23;1706227;82;21222;-81
2023/04/27 11:01:59;;;;;;;3.10;1.95;;;;;;;21.62;56.66;99190.08;1703096;82;21274;-81
2023/04/27 11:04:51;;;;;;;3.70;2.10;;;;;;;21.68;56.84;99197.88;1709811;83;21198;-81
2023/04/27 11:07:37;;;;;;;8.75;2.20;;;;;;;21.68;58.07;99197.32;1697058;82;21819;-81
2023/04/27 11:10:31;;;;;;;8.30;2.42;;;;;;;21.76;58.32;99197.90;1706350;82;21869;-81
2023/04/27 11:13:19;;;;;;;8.75;2.05;;;;;;;21.89;58.83;99204.31;1699448;82;21277;-81
2023/04/27 11:16:12;;;;;;;4.87;2.08;;;;;;;21.94;55.16;99203.76;1705100;83;21829;-80
2023/04/27 11:18:59;;;;;;;8.05;2.35;;;;;;;21.92;55.97;99200.43;1710275;83;21206;-81
2023/04/27 11:22:12;;;;;;;9.75;2.27;;;;;;;21.99;56.04;99197.36;1685902;84;21211;-81
2023/04/27 11:25:17;;;;;;;5.87;2.40;;;;;;;22.10;54.57;99196.23;1710139;83;21195;-80
2023/04/27 11:28:30;;;;;;;4.17;2.30;;;;;;;22.05;52.74;99200.41;1676322;83;21192;-80
2023/04/27 11:31:48;;;;;;;10.78;2.70;;;;;;;21.97;53.51;99196.78;1708795;83;21748;-81
2023/04/27 11:35:01;;;;;;;14.47;2.60;;;;;;;21.90;53.28;99202.64;1705693;83;21274;-82
2023/04/27 11:38:06;;;;;;;4.35;2.45;;;;;;;21.87;54.14;99200.40;1713657;83;21500;-81
2023/04/27 11:41:14;;;;;;;14.75;2.67;;;;;;;21.90;53.88;99194.28;1713267;83;21175;-81
2023/04/27 11:44:20;;;;;;;6.62;2.42;;;;;;;22.08;55.08;99190.12;1709746;83;21210;-81
2023/04/27 11:47:26;;;;;;;8.03;2.47;;;;;;;22.22;54.09;99179.84;1706700;82;21222;-81
2023/04/27 11:50:32;;;;;;;3.12;1.92;;;;;;;22.28;52.32;99188.47;1712888;83;21210;-81
2023/04/27 11:53:41;;;;;;;18.85;2.70;;;;;;;22.37;51.25;99188.17;1704578;83;21178;-81
2023/04/27 11:56:56;;;;;;;6.53;2.45;;;;;;;22.49;52.41;99184.55;1710746;83;21409;-82
2023/04/27 12:00:13;;;;;;;2.72;1.70;;;;;;;22.45;52.08;99183.44;1705939;82;21233;-81
2023/04/27 12:03:20;;;;;;;7.55;2.00;;;;;;;22.36;52.06;99187.91;1711789;83;21310;-82
2023/04/27 12:06:34;;;;;;;5.67;2.55;;;;;;;22.50;51.82;99182.59;1711912;83;21764;-82
2023/04/27 12:09:39;;;;;;;7.17;2.52;;;;;;;22.55;50.68;99175.05;1711150;83;21158;-82
2023/04/27 12:12:46;;;;;;;5.60;2.00;;;;;;;22.63;50.38;99179.19;1701730;83;21199;-82
2023/04/27 12:15:52;;;;;;;8.98;2.12;;;;;;;22.60;50.17;99183.39;1709198;82;21190;-80
2023/04/27 12:18:59;;;;;;;3.62;1.82;;;;;;;22.56;51.21;99191.20;1704434;82;21340;-82
2023/04/27 12:22:04;;;;;;;6.15;2.45;;;;;;;22.47;50.81;99197.91;1706571;82;21216;-82
2023/04/27 12:25:10;;;;;;;4.37;2.40;;;;;;;22.37;50.53;99199.31;1708715;82;21249;-83
2023/04/27 12:28:21;;;;;;;6.30;2.60;;;;;;;22.32;50.97;99196.54;1713595;83;21206;-82
2023/04/27 12:31:28;;;;;;;8.23;2.47;;;;;;;22.35;50.68;99200.17;1711317;82;21178;-82
2023/04/27 12:34:35;;;;;;;6.45;2.12;;;;;;;22.49;50.46;99202.66;1705536;82;21250;-80
2023/04/27 12:37:41;;;;;;;6.45;2.45;;;;;;;22.40;50.37;99201.55;1710719;83;21218;-81
2023/04/27 12:40:50;;;;;;;4.75;2.30;;;;;;;22.28;51.10;99210.75;1712149;83;21191;-81
2023/04/27 12:43:50;;;;;;;3.37;2.15;;;;;;;22.15;51.19;99203.22;1710645;83;21198;-81
2023/04/27 12:46:55;;;;;;;6.58;2.37;;;;;;;22.18;51.06;99204.06;1712606;83;21246;-81
2023/04/27 12:50:01;;;;;;;6.20;2.25;;;;;;;21.93;49.27;99209.61;1709328;82;21202;-81
2023/04/27 12:53:11;;;;;;;5.03;2.00;;;;;;;21.63;49.27;99214.01;1711693;83;21254;-81
2023/04/27 12:56:17;;;;;;;4.72;2.30;;;;;;;21.43;51.14;99223.70;1711434;83;21269;-81
2023/04/27 12:59:22;;;;;;;3.60;2.20;;;;;;;21.36;53.03;99225.38;1703799;82;21327;-81
2023/04/27 13:02:28;;;;;;;4.85;2.10;;;;;;;21.31;53.02;99218.92;1709441;82;21170;-81
2023/04/27 13:05:35;;;;;;;8.63;2.75;;;;;;;21.32;52.60;99223.41;1710577;82;21241;-81
2023/04/27 13:08:42;;;;;;;3.40;2.08;;;;;;;21.27;53.67;99226.14;1705368;82;21154;-81
2023/04/27 13:11:48;;;;;;;3.30;1.92;;;;;;;21.27;54.26;99231.70;1706849;82;22179;-81
2023/04/27 13:14:55;;;;;;;3.35;1.82;;;;;;;21.19;52.13;99228.88;1706438;82;21195;-81
2023/04/27 13:18:04;;;;;;;5.53;2.12;;;;;;;21.09;52.72;99232.45;1707262;83;21208;-81
2023/04/27 13:21:09;;;;;;;5.67;2.33;;;;;;;21.07;51.82;99231.04;1705347;82;21178;-81
2023/04/27 13:24:17;;;;;;;6.87;2.35;;;;;;;21.03;51.72;99234.08;1700305;83;21242;-82
2023/04/27 13:27:24;;;;;;;3.87;2.20;;;;;;;21.03;51.86;99234.94;1704099;82;21634;-81
2023/04/27 13:30:29;;;;;;;6.25;2.50;;;;;;;20.93;51.54;99233.47;1705913;82;21187;-81
2023/04/27 13:33:35;;;;;;;5.40;2.20;;;;;;;20.83;52.11;99243.98;1708495;83;21224;-81
2023/04/27 13:36:39;;;;;;;7.58;2.50;;;;;;;20.77;53.23;99241.46;1708700;82;21211;-81
2023/04/27 13:39:46;;;;;;;7.08;2.50;;;;;;;20.70;53.07;99233.91;1707504;83;21158;-81
2023/04/27 13:42:51;;;;;;;5.72;2.50;;;;;;;20.48;53.88;99243.22;1705627;82;21206;-81
2023/04/27 13:45:58;;;;;;;5.87;2.50;;;;;;;20.40;53.84;99247.29;1696702;82;22375;-81
2023/04/27 13:49:03;;;;;;;6.90;2.40;;;;;;;20.35;54.32;99247.81;1701382;82;21285;-81
2023/04/27 13:52:09;;;;;;;7.35;2.72;;;;;;;20.16;55.70;99250.16;1704275;82;21165;-81
2023/04/27 13:55:16;;;;;;;13.58;2.70;;;;;;;20.00;57.01;99254.75;1705034;82;21195;-81
2023/04/27 13:58:23;;;;;;;6.03;2.40;;;;;;;19.89;56.64;99255.73;1692518;82;21228;-81
2023/04/27 14:01:28;;;;;;;7.58;2.77;;;;;;;19.80;57.63;99248.98;1699435;82;21210;-81
2023/04/27 14:04:33;;;;;;;5.08;3.10;;;;;;;19.74;56.57;99250.04;1707920;83;21775;-81
2023/04/27 14:07:38;;;;;;;8.83;2.92;;;;;;;19.59;57.71;99259.01;1706212;82;21175;-81
2023/04/27 14:10:45;;;;;;;5.10;2.70;;;;;;;19.57;58.38;99262.58;1704582;82;21200;-81
2023/04/27 14:13:51;;;;;;;5.40;2.60;;;;;;;19.55;57.80;99268.95;1709347;82;21210;-81
2023/04/27 14:16:59;;;;;;;12.90;3.22;;;;;;;19.44;58.04;99271.33;1709781;82;21879;-81
2023/04/27 14:20:05;;;;;;;7.70;2.47;;;;;;;19.32;58.45;99272.83;1702803;82;21232;-82
2023/04/27 14:23:12;;;;;;;4.53;2.27;;;;;;;19.34;57.61;99274.81;1704127;82;21193;-82
2023/04/27 14:26:17;;;;;;;6.35;2.92;;;;;;;19.29;56.65;99271.44;1703948;82;21208;-81
2023/04/27 14:29:24;;;;;;;6.33;2.55;;;;;;;19.28;56.85;99275.28;1705600;82;21191;-81
2023/04/27 14:32:29;;;;;;;4.08;2.47;;;;;;;19.34;56.13;99274.81;1700319;82;21852;-81
2023/04/27 14:35:35;;;;;;;4.55;1.67;;;;;;;19.41;55.38;99271.28;1700451;82;21227;-81
2023/04/27 14:38:42;;;;;;;3.65;2.30;;;;;;;19.62;55.06;99273.79;1701355;82;21302;-81
2023/04/27 14:41:48;;;;;;;3.50;2.02;;;;;;;19.72;55.17;99271.67;1690468;84;21195;-81
2023/04/27 14:44:53;;;;;;;5.47;2.33;;;;;;;19.70;54.24;99269.14;1705571;82;21246;-82
2023/04/27 14:47:59;;;;;;;4.17;2.60;;;;;;;19.59;54.01;99272.88;1704616;82;21167;-81
2023/04/27 14:51:05;;;;;;;4.22;2.50;;;;;;;19.53;54.64;99277.54;1701806;83;21246;-82
2023/04/27 14:54:10;;;;;;;8.05;2.47;;;;;;;19.55;54.88;99277.27;1708281;82;21203;-82
2023/04/27 14:57:16;;;;;;;6.22;2.92;;;;;;;19.34;56.08;99284.52;1709791;82;21198;-82